createdAt,value
2019-04-27T00:00:20.748Z,100949.68
2019-04-27T00:02:50.805Z,100947.28
2019-04-27T00:05:24.350Z,100947.59
2019-04-27T00:07:56.261Z,100950.61
2019-04-27T00:10:30.037Z,100946.55
2019-04-27T00:13:02.208Z,100944.73
2019-04-27T00:15:45.676Z,100942.84
2019-04-27T00:18:28.353Z,100935.91
2019-04-27T00:21:00.726Z,100929.50
2019-04-27T00:23:30.687Z,100931.53
2019-04-27T00:25:59.068Z,100942.69
2019-04-27T00:28:27.440Z,100929.49
2019-04-27T00:30:56.346Z,100924.34
2019-04-27T00:33:24.725Z,100932.63
2019-04-27T00:36:03.569Z,100929.70
2019-04-27T00:38:45.671Z,100932.95
2019-04-27T00:41:19.249Z,100924.91
2019-04-27T00:43:47.681Z,100926.47
2019-04-27T00:46:16.297Z,100908.22
2019-04-27T00:48:44.651Z,100908.85
2019-04-27T00:51:14.474Z,100908.73
2019-04-27T00:53:43.645Z,100905.24
2019-04-27T00:56:23.647Z,100902.36
2019-04-27T00:59:11.250Z,100904.55
2019-04-27T01:01:43.511Z,100900.05
2019-04-27T01:04:16.532Z,100895.78
2019-04-27T01:06:44.817Z,100886.41
2019-04-27T01:09:14.746Z,100888.63
2019-04-27T01:11:43.465Z,100882.27
2019-04-27T01:14:12.880Z,100874.36
2019-04-27T01:16:41.657Z,100869.25
2019-04-27T01:19:10.421Z,100857.98
2019-04-27T01:21:39.643Z,100859.13
2019-04-27T01:24:08.962Z,100852.72
2019-04-27T01:26:41.935Z,100858.62
2019-04-27T01:29:14.340Z,100849.19
2019-04-27T01:31:42.709Z,100855.95
2019-04-27T01:34:11.010Z,100865.95
2019-04-27T01:36:39.346Z,100858.92
2019-04-27T01:39:10.139Z,100869.75
2019-04-27T01:41:39.105Z,100870.63
2019-04-27T01:44:09.120Z,100868.70
2019-04-27T01:46:39.573Z,100863.34
2019-04-27T01:49:09.182Z,100860.94
2019-04-27T01:51:39.128Z,100857.66
2019-04-27T01:54:10.470Z,100855.83
2019-04-27T01:56:39.482Z,100851.78
2019-04-27T01:59:09.023Z,100848.86
2019-04-27T02:01:39.985Z,100848.12
2019-04-27T02:04:12.775Z,100842.50
2019-04-27T02:06:41.631Z,100846.30
2019-04-27T02:09:11.701Z,100841.75
2019-04-27T02:11:40.152Z,100840.19
2019-04-27T02:14:09.486Z,100844.03
2019-04-27T02:16:39.177Z,100836.78
2019-04-27T02:19:11.053Z,100831.91
2019-04-27T02:21:39.176Z,100830.32
2019-04-27T02:24:09.766Z,100833.33
2019-04-27T02:26:39.734Z,100830.36
2019-04-27T02:29:26.000Z,100821.20
2019-04-27T02:32:14.040Z,100814.97
2019-04-27T02:34:50.487Z,100812.87
2019-04-27T02:37:20.082Z,100818.38
2019-04-27T02:39:50.011Z,100809.81
2019-04-27T02:42:20.016Z,100804.50
2019-04-27T02:44:49.397Z,100799.92
2019-04-27T02:47:20.460Z,100796.42
2019-04-27T02:49:50.372Z,100800.48
2019-04-27T02:52:22.869Z,100792.37
2019-04-27T02:54:51.291Z,100791.59
2019-04-27T02:57:20.066Z,100787.34
2019-04-27T02:59:50.280Z,100792.55
2019-04-27T03:02:26.537Z,100787.92
2019-04-27T03:04:54.881Z,100782.03
2019-04-27T03:07:23.219Z,100781.52
2019-04-27T03:09:51.708Z,100774.52
2019-04-27T03:12:21.665Z,100781.55
2019-04-27T03:14:57.307Z,100775.92
2019-04-27T03:17:42.001Z,100776.80
2019-04-27T03:20:30.024Z,100764.98
2019-04-27T03:23:00.693Z,100768.59
2019-04-27T03:25:42.198Z,100767.06
2019-04-27T03:28:11.967Z,100760.64
2019-04-27T03:30:42.457Z,100758.81
2019-04-27T03:33:11.951Z,100755.63
2019-04-27T03:35:42.990Z,100753.22
2019-04-27T03:38:12.553Z,100751.05
2019-04-27T03:40:41.027Z,100749.40
2019-04-27T03:43:16.529Z,100751.39
2019-04-27T03:45:44.814Z,100757.40
2019-04-27T03:48:13.109Z,100750.69
2019-04-27T03:50:43.193Z,100753.39
2019-04-27T03:53:15.907Z,100758.04
2019-04-27T03:55:51.589Z,100752.68
2019-04-27T03:58:21.884Z,100760.04
2019-04-27T04:00:52.494Z,100759.85
2019-04-27T04:03:20.895Z,100757.45
2019-04-27T04:05:49.449Z,100760.98
2019-04-27T04:08:19.436Z,100748.86
2019-04-27T04:10:49.661Z,100753.21
2019-04-27T04:13:20.439Z,100752.95
2019-04-27T04:15:54.061Z,100744.28
2019-04-27T04:18:23.020Z,100743.23
2019-04-27T04:20:51.890Z,100745.11
2019-04-27T04:23:20.629Z,100745.64
2019-04-27T04:25:49.930Z,100752.39
2019-04-27T04:28:19.889Z,100752.91
2019-04-27T04:30:50.096Z,100749.46
2019-04-27T04:33:20.535Z,100741.89
2019-04-27T04:35:49.869Z,100751.64
2019-04-27T04:38:20.524Z,100751.38
2019-04-27T04:40:50.481Z,100743.31
2019-04-27T04:43:20.544Z,100740.91
2019-04-27T04:46:12.287Z,100742.06
2019-04-27T04:48:40.351Z,100743.13
2019-04-27T04:51:11.211Z,100738.55
2019-04-27T04:53:40.623Z,100738.25
2019-04-27T04:56:10.641Z,100743.65
2019-04-27T04:58:39.745Z,100747.92
2019-04-27T05:01:09.932Z,100751.91
2019-04-27T05:03:38.935Z,100755.66
2019-04-27T05:06:08.836Z,100751.56
2019-04-27T05:08:39.261Z,100750.17
2019-04-27T05:11:09.510Z,100744.95
2019-04-27T05:13:39.360Z,100747.02
2019-04-27T05:16:08.974Z,100738.83
2019-04-27T05:18:39.266Z,100738.70
2019-04-27T05:21:24.199Z,100736.19
2019-04-27T05:23:52.553Z,100736.84
2019-04-27T05:26:21.335Z,100734.63
2019-04-27T05:28:49.620Z,100733.36
2019-04-27T05:31:19.516Z,100734.58
2019-04-27T05:33:49.029Z,100738.81
2019-04-27T05:36:19.241Z,100737.63
2019-04-27T05:38:49.686Z,100734.52
2019-04-27T05:41:18.735Z,100738.66
2019-04-27T05:43:58.990Z,100738.21
2019-04-27T05:46:44.787Z,100740.98
2019-04-27T05:49:23.594Z,100742.87
2019-04-27T05:51:53.259Z,100737.14
2019-04-27T05:54:21.550Z,100742.72
2019-04-27T05:56:49.949Z,100732.91
2019-04-27T05:59:19.837Z,100733.30
2019-04-27T06:01:49.244Z,100726.40
2019-04-27T06:04:19.302Z,100731.20
2019-04-27T06:06:49.672Z,100732.37
2019-04-27T06:09:19.395Z,100740.64
2019-04-27T06:11:50.277Z,100734.20
2019-04-27T06:14:19.235Z,100733.58
2019-04-27T06:16:51.005Z,100736.73
2019-04-27T06:19:19.357Z,100738.56
2019-04-27T06:21:49.813Z,100736.60
2019-04-27T06:24:18.641Z,100732.22
2019-04-27T06:26:49.738Z,100731.27
2019-04-27T06:29:17.124Z,100741.59
2019-04-27T06:31:45.668Z,100736.38
2019-04-27T06:34:14.022Z,100737.20
2019-04-27T06:36:42.416Z,100738.87
2019-04-27T06:39:10.790Z,100736.62
2019-04-27T06:41:40.968Z,100738.30
2019-04-27T06:44:11.290Z,100741.59
2019-04-27T06:46:40.489Z,100739.19
2019-04-27T06:49:10.827Z,100741.02
2019-04-27T06:51:40.160Z,100735.12
2019-04-27T06:54:09.274Z,100745.08
2019-04-27T06:56:38.963Z,100738.55
2019-04-27T06:59:08.740Z,100729.06
2019-04-27T07:01:39.013Z,100737.83
2019-04-27T07:04:08.857Z,100730.55
2019-04-27T07:06:37.458Z,100735.12
2019-04-27T07:09:09.605Z,100735.59
2019-04-27T07:11:39.495Z,100727.70
2019-04-27T07:14:11.170Z,100732.94
2019-04-27T07:16:39.201Z,100737.01
2019-04-27T07:19:09.377Z,100732.63
2019-04-27T07:21:39.728Z,100729.76
2019-04-27T07:24:09.002Z,100721.05
2019-04-27T07:26:39.079Z,100719.45
2019-04-27T07:29:09.388Z,100722.98
2019-04-27T07:31:39.794Z,100727.33
2019-04-27T07:34:09.385Z,100717.94
2019-04-27T07:36:39.265Z,100720.02
2019-04-27T07:39:11.134Z,100709.82
2019-04-27T07:41:38.881Z,100710.08
2019-04-27T07:44:16.188Z,100703.23
2019-04-27T07:46:46.892Z,100706.98
2019-04-27T07:49:17.072Z,100705.55
2019-04-27T07:51:45.508Z,100696.46
2019-04-27T07:54:14.900Z,100696.46
2019-04-27T07:56:43.322Z,100687.47
2019-04-27T07:59:11.628Z,100690.11
2019-04-27T08:01:40.043Z,100685.41
2019-04-27T08:04:09.428Z,100689.66
2019-04-27T08:06:38.781Z,100693.91
2019-04-27T08:09:09.214Z,100697.63
2019-04-27T08:11:39.177Z,100692.34
2019-04-27T08:14:08.680Z,100687.34
2019-04-27T08:16:38.766Z,100692.88
2019-04-27T08:19:07.431Z,100689.20
2019-04-27T08:21:43.420Z,100687.95
2019-04-27T08:24:05.919Z,100688.49
2019-04-27T08:26:36.608Z,100689.23
2019-04-27T08:29:12.471Z,100689.06
2019-04-27T08:31:42.387Z,100692.23
2019-04-27T08:34:12.396Z,100689.78
2019-04-27T08:36:40.841Z,100693.84
2019-04-27T08:39:09.890Z,100692.98
2019-04-27T08:41:39.491Z,100688.34
2019-04-27T08:44:09.703Z,100692.48
2019-04-27T08:46:38.624Z,100689.70
2019-04-27T08:49:08.397Z,100691.78
2019-04-27T08:51:39.209Z,100689.63
2019-04-27T08:54:09.091Z,100689.63
2019-04-27T08:56:37.602Z,100688.34
2019-04-27T08:59:05.912Z,100694.59
2019-04-27T09:01:34.249Z,100694.09
2019-04-27T09:04:02.600Z,100682.84
2019-04-27T09:06:31.211Z,100683.80
2019-04-27T09:09:03.751Z,100683.55
2019-04-27T09:11:34.545Z,100680.05
2019-04-27T09:14:05.272Z,100686.05
2019-04-27T09:16:38.956Z,100683.73
2019-04-27T09:19:14.749Z,100685.70
2019-04-27T09:22:12.719Z,100688.24
2019-04-27T09:24:30.886Z,100681.77
2019-04-27T09:26:59.629Z,100680.02
2019-04-27T09:29:29.864Z,100682.91
2019-04-27T09:31:59.631Z,100680.77
2019-04-27T09:34:28.617Z,100678.59
2019-04-27T09:36:56.903Z,100678.52
2019-04-27T09:39:26.464Z,100677.73
2019-04-27T09:41:57.053Z,100669.91
2019-04-27T09:44:26.694Z,100673.73
2019-04-27T09:46:56.094Z,100668.80
2019-04-27T09:49:26.140Z,100670.30
2019-04-27T09:51:55.687Z,100672.16
2019-04-27T09:54:24.130Z,100662.91
2019-04-27T09:56:52.427Z,100660.50
2019-04-27T09:59:20.842Z,100663.23
2019-04-27T10:01:49.142Z,100667.22
2019-04-27T10:04:17.872Z,100664.98
2019-04-27T10:06:48.585Z,100669.15
2019-04-27T10:09:16.332Z,100664.83
2019-04-27T10:11:44.643Z,100664.25
2019-04-27T10:14:12.923Z,100661.40
2019-04-27T10:16:41.240Z,100664.67
2019-04-27T10:19:10.323Z,100658.67
2019-04-27T10:21:38.756Z,100652.98
2019-04-27T10:24:07.031Z,100657.96
2019-04-27T10:26:36.226Z,100657.72
2019-04-27T10:29:06.177Z,100654.83
2019-04-27T10:31:34.528Z,100657.63
2019-04-27T10:34:03.896Z,100659.30
2019-04-27T10:36:38.944Z,100658.52
2019-04-27T10:39:09.026Z,100658.02
2019-04-27T10:41:37.318Z,100691.48
2019-04-27T10:44:07.567Z,100705.45
2019-04-27T10:46:35.982Z,100698.77
2019-04-27T10:49:05.910Z,100701.41
2019-04-27T10:51:34.390Z,100699.59
2019-04-27T10:54:03.273Z,100697.00
2019-04-27T10:56:31.548Z,100696.69
2019-04-27T10:58:59.838Z,100701.03
2019-04-27T11:01:28.222Z,100701.78
2019-04-27T11:04:05.976Z,100698.74
2019-04-27T11:06:35.523Z,100701.20
2019-04-27T11:09:09.028Z,100694.73
2019-04-27T11:11:37.338Z,100695.50
2019-04-27T11:14:06.905Z,100695.19
2019-04-27T11:16:35.684Z,100693.72
2019-04-27T11:19:06.605Z,100694.08
2019-04-27T11:21:34.979Z,100694.44
2019-04-27T11:24:03.349Z,100688.36
2019-04-27T11:26:31.734Z,100682.44
2019-04-27T11:29:00.090Z,100683.83
2019-04-27T11:31:28.438Z,100679.95
2019-04-27T11:33:57.439Z,100682.09
2019-04-27T11:36:30.176Z,100680.93
2019-04-27T11:39:02.972Z,100674.03
2019-04-27T11:41:31.261Z,100674.15
2019-04-27T11:44:02.000Z,100664.43
2019-04-27T11:46:31.112Z,100667.83
2019-04-27T11:48:59.469Z,100673.09
2019-04-27T11:51:28.418Z,100676.88
2019-04-27T11:53:56.850Z,100682.83
2019-04-27T11:56:27.297Z,100692.08
2019-04-27T11:58:56.157Z,100685.16
2019-04-27T12:01:24.522Z,100684.23
2019-04-27T12:03:52.812Z,100683.92
2019-04-27T12:06:21.093Z,100688.70
2019-04-27T12:08:49.405Z,100695.67
2019-04-27T12:11:17.799Z,100700.78
2019-04-27T12:13:46.232Z,100698.00
2019-04-27T12:16:15.599Z,100704.72
2019-04-27T12:18:48.856Z,100707.93
2019-04-27T12:21:14.655Z,100713.11
2019-04-27T12:23:42.964Z,100711.75
2019-04-27T12:26:12.916Z,100723.96
2019-04-27T12:28:45.977Z,100719.19
2019-04-27T12:31:18.863Z,100710.41
2019-04-27T12:33:47.148Z,100710.63
2019-04-27T12:36:15.797Z,100712.41
2019-04-27T12:38:44.330Z,100709.59
2019-04-27T12:41:12.662Z,100707.45
2019-04-27T12:43:40.987Z,100708.17
2019-04-27T12:46:09.271Z,100712.81
2019-04-27T12:48:37.630Z,100707.63
2019-04-27T12:51:06.035Z,100716.62
2019-04-27T12:53:52.193Z,100720.62
2019-04-27T12:56:20.065Z,100712.56
2019-04-27T12:58:59.319Z,100719.91
2019-04-27T13:01:29.101Z,100714.17
2019-04-27T13:03:59.295Z,100704.03
2019-04-27T13:06:28.218Z,100705.81
2019-04-27T13:08:56.500Z,100700.23
2019-04-27T13:11:26.523Z,100700.31
2019-04-27T13:13:57.196Z,100691.48
2019-04-27T13:16:26.847Z,100688.05
2019-04-27T13:18:57.507Z,100678.72
2019-04-27T13:21:26.326Z,100678.55
2019-04-27T13:24:03.698Z,100676.25
2019-04-27T13:26:24.702Z,100684.00
2019-04-27T13:28:53.159Z,100690.71
2019-04-27T13:31:21.714Z,100690.22
2019-04-27T13:33:49.995Z,100688.14
2019-04-27T13:36:18.331Z,100686.54
2019-04-27T13:38:46.768Z,100686.39
2019-04-27T13:41:27.481Z,100685.05
2019-04-27T13:43:45.161Z,100680.48
2019-04-27T13:46:20.864Z,100671.33
2019-04-27T13:49:09.183Z,100665.47
2019-04-27T13:51:39.241Z,100669.28
2019-04-27T13:54:17.191Z,100673.20
2019-04-27T13:56:38.573Z,100680.92
2019-04-27T13:59:07.696Z,100675.34
2019-04-27T14:01:36.249Z,100672.88
2019-04-27T14:04:04.841Z,100675.69
2019-04-27T14:06:35.361Z,100677.45
2019-04-27T14:09:04.506Z,100668.91
2019-04-27T14:11:33.052Z,100662.80
2019-04-27T14:14:01.344Z,100659.19
2019-04-27T14:16:29.632Z,100654.47
2019-04-27T14:18:59.411Z,100646.21
2019-04-27T14:21:29.470Z,100659.21
2019-04-27T14:23:58.591Z,100662.05
2019-04-27T14:26:30.159Z,100660.80
2019-04-27T14:28:58.475Z,100659.38
2019-04-27T14:31:26.834Z,100666.70
2019-04-27T14:33:55.264Z,100660.31
2019-04-27T14:36:23.755Z,100656.24
2019-04-27T14:38:52.334Z,100648.66
2019-04-27T14:41:21.414Z,100652.89
2019-04-27T14:44:04.911Z,100650.50
2019-04-27T14:46:20.251Z,100653.34
2019-04-27T14:48:48.519Z,100650.63
2019-04-27T14:51:18.662Z,100650.86
2019-04-27T14:53:48.861Z,100641.80
2019-04-27T14:56:18.186Z,100644.92
2019-04-27T14:58:46.740Z,100645.33
2019-04-27T15:01:18.805Z,100644.44
2019-04-27T15:03:47.597Z,100654.55
2019-04-27T15:06:17.550Z,100654.63
2019-04-27T15:08:47.066Z,100655.00
2019-04-27T15:11:19.244Z,100658.56
2019-04-27T15:13:48.682Z,100663.63
2019-04-27T15:16:17.248Z,100668.17
2019-04-27T15:18:52.650Z,100679.19
2019-04-27T15:21:21.041Z,100677.41
2019-04-27T15:23:49.509Z,100687.97
2019-04-27T15:26:22.468Z,100681.95
2019-04-27T15:28:51.288Z,100689.69
2019-04-27T15:31:30.738Z,100689.80
2019-04-27T15:34:06.674Z,100698.58
2019-04-27T15:36:39.501Z,100697.55
2019-04-27T15:39:22.594Z,100699.03
2019-04-27T15:41:51.312Z,100712.19
2019-04-27T15:44:19.603Z,100724.55
2019-04-27T15:46:48.010Z,100727.16
2019-04-27T15:49:17.939Z,100742.44
2019-04-27T15:51:46.584Z,100735.35
2019-04-27T15:54:15.755Z,100741.89
2019-04-27T15:56:44.619Z,100742.38
2019-04-27T15:59:13.083Z,100744.34
2019-04-27T16:01:41.530Z,100744.27
2019-04-27T16:04:12.812Z,100742.93
2019-04-27T16:06:42.807Z,100743.11
2019-04-27T16:09:25.377Z,100740.01
2019-04-27T16:11:58.371Z,100741.63
2019-04-27T16:14:22.751Z,100744.23
2019-04-27T16:16:51.138Z,100745.10
2019-04-27T16:19:19.553Z,100745.23
2019-04-27T16:21:53.518Z,100754.03
2019-04-27T16:24:21.177Z,100754.97
2019-04-27T16:26:53.911Z,100766.72
2019-04-27T16:29:18.670Z,100761.56
2019-04-27T16:31:48.086Z,100774.86
2019-04-27T16:34:18.370Z,100767.71
2019-04-27T16:36:46.760Z,100777.52
2019-04-27T16:39:15.123Z,100771.64
2019-04-27T16:41:43.429Z,100780.81
2019-04-27T16:44:11.733Z,100782.52
2019-04-27T16:46:43.065Z,100780.73
2019-04-27T16:49:14.050Z,100778.55
2019-04-27T16:51:40.444Z,100779.13
2019-04-27T16:54:11.217Z,100783.66
2019-04-27T16:56:38.826Z,100785.66
2019-04-27T16:59:26.770Z,100787.30
2019-04-27T17:01:41.769Z,100786.72
2019-04-27T17:04:11.227Z,100789.20
2019-04-27T17:06:39.186Z,100788.15
2019-04-27T17:09:11.357Z,100793.20
2019-04-27T17:11:38.770Z,100792.95
2019-04-27T17:14:09.461Z,100801.12
2019-04-27T17:16:55.643Z,100806.11
2019-04-27T17:19:25.596Z,100805.36
2019-04-27T17:21:53.861Z,100807.99
2019-04-27T17:24:41.976Z,100812.50
2019-04-27T17:27:05.748Z,100818.38
2019-04-27T17:29:35.749Z,100817.61
2019-04-27T17:32:04.451Z,100825.56
2019-04-27T17:34:32.986Z,100830.88
2019-04-27T17:37:01.455Z,100837.45
2019-04-27T17:39:30.070Z,100835.67
2019-04-27T17:41:58.805Z,100843.37
2019-04-27T17:44:28.839Z,100842.59
2019-04-27T17:46:57.279Z,100855.48
2019-04-27T17:49:25.558Z,100870.85
2019-04-27T17:51:53.973Z,100870.20
2019-04-27T17:54:22.267Z,100873.75
2019-04-27T17:56:52.458Z,100874.30
2019-04-27T17:59:21.090Z,100874.27
2019-04-27T18:01:49.827Z,100878.09
2019-04-27T18:04:20.262Z,100887.28
2019-04-27T18:06:49.541Z,100887.70
2019-04-27T18:09:19.207Z,100895.52
2019-04-27T18:11:48.597Z,100893.03
2019-04-27T18:14:19.266Z,100895.21
2019-04-27T18:16:48.270Z,100899.55
2019-04-27T18:19:21.204Z,100899.55
2019-04-27T18:22:03.757Z,100905.30
2019-04-27T18:24:38.019Z,100888.69
2019-04-27T18:27:10.808Z,100889.38
2019-04-27T18:29:39.087Z,100891.53
2019-04-27T18:32:08.856Z,100889.06
2019-04-27T18:34:38.954Z,100894.75
2019-04-27T18:37:07.423Z,100895.35
2019-04-27T18:39:35.807Z,100894.81
2019-04-27T18:42:05.059Z,100899.99
2019-04-27T18:44:33.746Z,100911.48
2019-04-27T18:47:02.681Z,100910.20
2019-04-27T18:49:35.605Z,100911.87
2019-04-27T18:52:08.895Z,100913.66
2019-04-27T18:54:41.789Z,100919.63
2019-04-27T18:57:10.796Z,100920.58
2019-04-27T18:59:38.185Z,100918.46
2019-04-27T19:02:08.294Z,100920.77
2019-04-27T19:04:36.661Z,100928.34
2019-04-27T19:07:05.093Z,100926.50
2019-04-27T19:09:33.370Z,100925.58
2019-04-27T19:12:01.698Z,100928.64
2019-04-27T19:14:30.013Z,100934.34
2019-04-27T19:16:58.860Z,100939.55
2019-04-27T19:19:28.078Z,100933.36
2019-04-27T19:21:56.494Z,100938.63
2019-04-27T19:24:24.895Z,100940.89
2019-04-27T19:26:58.750Z,100939.17
2019-04-27T19:29:29.279Z,100944.09
2019-04-27T19:31:59.348Z,100944.77
2019-04-27T19:34:28.669Z,100943.97
2019-04-27T19:36:59.073Z,100947.53
2019-04-27T19:39:28.621Z,100951.91
2019-04-27T19:42:01.351Z,100949.00
2019-04-27T19:44:28.959Z,100956.41
2019-04-27T19:46:57.451Z,100954.11
2019-04-27T19:49:25.725Z,100954.89
2019-04-27T19:51:54.255Z,100960.41
2019-04-27T19:54:22.546Z,100964.02
2019-04-27T19:56:50.906Z,100965.25
2019-04-27T19:59:28.039Z,100965.61
2019-04-27T20:01:58.428Z,100968.47
2019-04-27T20:04:28.420Z,100969.14
2019-04-27T20:06:56.729Z,100977.89
2019-04-27T20:09:26.825Z,100981.22
2019-04-27T20:11:55.333Z,100981.88
2019-04-27T20:14:23.624Z,100973.84
2019-04-27T20:16:52.089Z,100977.08
2019-04-27T20:19:21.602Z,100975.50
2019-04-27T20:21:50.856Z,100989.63
2019-04-27T20:24:19.257Z,100983.02
2019-04-27T20:26:47.720Z,100982.55
2019-04-27T20:29:16.104Z,100989.84
2019-04-27T20:31:44.407Z,100990.67
2019-04-27T20:34:12.860Z,100995.61
2019-04-27T20:36:41.547Z,100995.65
2019-04-27T20:39:11.601Z,100997.13
2019-04-27T20:41:41.106Z,100997.92
2019-04-27T20:44:12.309Z,100997.39
2019-04-27T20:46:41.384Z,100991.98
2019-04-27T20:49:11.798Z,100998.53
2019-04-27T20:51:57.890Z,101001.28
2019-04-27T20:54:26.185Z,101003.28
2019-04-27T20:56:57.180Z,101006.56
2019-04-27T20:59:24.585Z,101013.37
2019-04-27T21:01:52.951Z,101005.56
2019-04-27T21:04:25.859Z,101006.73
2019-04-27T21:07:07.719Z,101002.74
2019-04-27T21:09:36.105Z,100997.71
2019-04-27T21:12:04.385Z,101005.61
2019-04-27T21:14:32.725Z,101006.44
2019-04-27T21:17:01.700Z,101003.80
2019-04-27T21:19:31.970Z,101011.73
2019-04-27T21:22:01.279Z,101007.80
2019-04-27T21:24:31.114Z,101005.72
2019-04-27T21:27:00.289Z,101003.61
2019-04-27T21:29:28.779Z,101006.84
2019-04-27T21:31:57.086Z,101014.73
2019-04-27T21:34:25.651Z,101007.77
2019-04-27T21:36:53.943Z,101009.70
2019-04-27T21:39:22.228Z,101010.25
2019-04-27T21:41:51.671Z,101011.91
2019-04-27T21:44:21.772Z,101011.94
2019-04-27T21:46:51.912Z,101010.63
2019-04-27T21:49:22.239Z,101015.50
2019-04-27T21:52:07.443Z,101015.01
2019-04-27T21:54:37.518Z,101015.60
2019-04-27T21:57:05.825Z,101018.87
2019-04-27T21:59:34.098Z,101025.95
2019-04-27T22:02:04.041Z,101020.08
2019-04-27T22:04:32.398Z,101023.11
2019-04-27T22:07:01.590Z,101019.63
2019-04-27T22:09:29.866Z,101011.05
2019-04-27T22:11:58.255Z,101017.02
2019-04-27T22:14:26.607Z,101013.81
2019-04-27T22:16:54.913Z,101020.04
2019-04-27T22:19:23.388Z,101025.53
2019-04-27T22:21:52.759Z,101031.20
2019-04-27T22:24:22.837Z,101034.20
2019-04-27T22:26:51.885Z,101038.28
2019-04-27T22:29:22.170Z,101040.78
2019-04-27T22:31:51.641Z,101044.59
2019-04-27T22:34:21.055Z,101044.88
2019-04-27T22:36:49.377Z,101047.61
2019-04-27T22:39:25.155Z,101050.87
2019-04-27T22:42:12.139Z,101055.51
2019-04-27T22:44:44.099Z,101057.94
2019-04-27T22:47:13.004Z,101059.61
2019-04-27T22:49:41.421Z,101064.27
2019-04-27T22:52:11.662Z,101061.59
2019-04-27T22:54:42.126Z,101065.40
2019-04-27T22:57:12.214Z,101060.58
2019-04-27T22:59:48.147Z,101069.27
2019-04-27T23:02:21.775Z,101067.94
2019-04-27T23:05:01.971Z,101068.25
2019-04-27T23:07:31.556Z,101073.96
2019-04-27T23:10:01.498Z,101071.85
2019-04-27T23:12:31.679Z,101066.23
2019-04-27T23:15:00.351Z,101073.27
2019-04-27T23:17:32.951Z,101070.83
2019-04-27T23:20:01.558Z,101076.81
2019-04-27T23:22:31.515Z,101077.39
2019-04-27T23:25:01.133Z,101081.13
2019-04-27T23:27:31.716Z,101087.11
2019-04-27T23:30:01.409Z,101087.13
2019-04-27T23:32:32.156Z,101090.64
2019-04-27T23:35:00.501Z,101088.78
2019-04-27T23:37:29.612Z,101087.95
2019-04-27T23:39:58.520Z,101091.73
2019-04-27T23:42:26.940Z,101091.21
2019-04-27T23:44:55.223Z,101095.01
2019-04-27T23:47:24.457Z,101090.71
2019-04-27T23:49:52.802Z,101097.23
2019-04-27T23:52:38.831Z,101093.47
2019-04-27T23:55:07.109Z,101087.28
2019-04-27T23:57:35.531Z,101090.55
